NCAR-RAP Real-Time Weather Data

Output produced by METARs form (06 May 2021  15:41 UTC)
found at http://weather.rap.ucar.edu/surface/
 
KSPI 061452Z 21007KT 10SM SCT065 BKN090 16/09 A3006 RMK AO2 SLP178 60000 T01560089 58007
KSPI 061352Z 18005KT 10SM OVC080 14/09 A3008 RMK AO2 SLP184 T01390089
KSPI 061252Z 00000KT 10SM OVC090 13/08 A3009 RMK AO2 RAB18E30 SLP187 P0000 T01330078
KSPI 061152Z 18006KT 10SM OVC085 12/08 A3008 RMK AO2 RAB01E16 SLP186 P0000 60000 T01220078 10128 20111 56007
KSPI 061052Z 19009KT 10SM BKN080 OVC095 12/07 A3009 RMK AO2 SLP188 T01220072
KSPI 060952Z 18009KT 10SM BKN110 12/07 A3009 RMK AO2 SLP189 T01170072
KSPI 060852Z 18008KT 10SM CLR 12/07 A3010 RMK AO2 SLP193 T01170067 56010
KSPI 060752Z 19008KT 10SM CLR 11/07 A3011 RMK AO2 SLP196 T01110072
KSPI 060652Z 17006KT 10SM CLR 12/08 A3011 RMK AO2 SLP195 T01170078
KSPI 060552Z 17006KT 10SM BKN120 12/08 A3013 RMK AO2 SLP204 T01170078 10178 20100 401890078 55006
KSPI 060452Z 16003KT 10SM CLR 11/07 A3012 RMK AO2 SLP201 T01060072
KSPI 060352Z 00000KT 10SM CLR 12/06 A3015 RMK AO2 SLP209 T01220061
KSPI 060252Z 17003KT 10SM CLR 12/06 A3015 RMK AO2 SLP211 T01170061 53009
KSPI 060152Z 14005KT 10SM CLR 13/05 A3014 RMK AO2 SLP205 T01330050
KSPI 060052Z 09003KT 10SM CLR 17/03 A3013 RMK AO2 SLP202 T01670033